Time;durP1;ratioP1;P1;durP2;ratioP2;P2;SDS_P1;SDS_P2;PMS_P1;PMS_P2;Temp;Humidity;BMP_temperature;BMP_pressure;BME280_temperature;BME280_humidity;BME280_pressure;Samples;Min_cycle;Max_cycle;Signal;HPM_P1;HPM_P2
2023/05/15 00:01:30;;;;;;;;;;;20.60;39.40;;;;;;5076339;28;19926;-58
2023/05/15 00:03:57;;;;;;;;;;;20.60;39.40;;;;;;5086064;28;19946;-58
2023/05/15 00:06:24;;;;;;;;;;;20.60;39.40;;;;;;5084565;28;19927;-57
2023/05/15 00:08:50;;;;;;;;;;;20.60;39.40;;;;;;5058777;28;19920;-57
2023/05/15 00:11:19;;;;;;;;;;;20.60;39.50;;;;;;5061027;28;19920;-57
2023/05/15 00:13:48;;;;;;;;;;;20.60;39.50;;;;;;5081308;28;19925;-58
2023/05/15 00:16:15;;;;;;;;;;;20.60;39.50;;;;;;5083487;28;19939;-58
2023/05/15 00:18:43;;;;;;;;;;;20.60;39.50;;;;;;5090747;28;19991;-58
2023/05/15 00:21:13;;;;;;;;;;;20.60;39.50;;;;;;5075220;28;19920;-59
2023/05/15 00:23:40;;;;;;;;;;;20.60;39.50;;;;;;5089522;28;19924;-57
2023/05/15 00:26:06;;;;;;;;;;;20.60;39.60;;;;;;5112132;28;19923;-58
2023/05/15 00:28:33;;;;;;;;;;;20.60;39.50;;;;;;5096454;28;20032;-58
2023/05/15 00:31:00;;;;;;;;;;;20.60;40.10;;;;;;5094139;28;19920;-59
2023/05/15 00:33:26;;;;;;;;;;;20.60;39.60;;;;;;5090839;28;19981;-58
2023/05/15 00:35:54;;;;;;;;;;;20.60;39.60;;;;;;5090874;28;20324;-58
2023/05/15 00:38:21;;;;;;;;;;;20.60;39.60;;;;;;5076135;28;19924;-58
2023/05/15 00:40:48;;;;;;;;;;;20.60;39.70;;;;;;5087958;28;19974;-58
2023/05/15 00:43:15;;;;;;;;;;;20.60;40.40;;;;;;5083513;28;19920;-58
2023/05/15 00:45:41;;;;;;;;;;;20.60;39.80;;;;;;5092343;28;19927;-58
2023/05/15 00:48:09;;;;;;;;;;;20.60;39.80;;;;;;5082166;28;20285;-58
2023/05/15 00:50:36;;;;;;;;;;;20.60;39.80;;;;;;5071390;28;19928;-58
2023/05/15 00:53:04;;;;;;;;;;;20.60;39.80;;;;;;5073530;28;19924;-58
2023/05/15 00:55:31;;;;;;;;;;;20.60;39.80;;;;;;5073597;28;19927;-57
2023/05/15 00:57:58;;;;;;;;;;;20.60;39.80;;;;;;5061650;28;19931;-57
2023/05/15 01:00:25;;;;;;;;;;;20.60;39.80;;;;;;5071712;28;20170;-57
2023/05/15 01:02:51;;;;;;;;;;;20.50;39.70;;;;;;5079823;28;19942;-58
2023/05/15 01:05:18;;;;;;;;;;;20.50;39.70;;;;;;5090044;28;19931;-58
2023/05/15 01:07:47;;;;;;;;;;;20.50;39.60;;;;;;5094003;28;19924;-58
2023/05/15 01:10:16;;;;;;;;;;;20.50;39.70;;;;;;5087636;28;19928;-58
2023/05/15 01:12:43;;;;;;;;;;;20.50;40.30;;;;;;5081582;28;20025;-58
2023/05/15 01:15:10;;;;;;;;;;;20.50;39.70;;;;;;5089266;28;19985;-58
2023/05/15 01:17:40;;;;;;;;;;;20.50;39.60;;;;;;5089498;28;19923;-58
2023/05/15 01:20:08;;;;;;;;;;;20.50;39.60;;;;;;5089148;28;20439;-58
2023/05/15 01:22:40;;;;;;;;;;;20.50;39.70;;;;;;5061395;28;19936;-58
2023/05/15 01:25:36;;;;;;;;;;;20.50;39.80;;;;;;5081286;28;20399;-58
2023/05/15 01:28:05;;;;;;;;;;;20.50;39.90;;;;;;5085762;28;19932;-58
2023/05/15 01:30:34;;;;;;;;;;;20.50;39.90;;;;;;5074908;28;19973;-58
2023/05/15 01:33:03;;;;;;;;;;;20.50;39.90;;;;;;5088731;28;19927;-58
2023/05/15 01:35:31;;;;;;;;;;;20.50;40.00;;;;;;5058149;28;19970;-58
2023/05/15 01:38:00;;;;;;;;;;;20.50;40.00;;;;;;5073017;28;19924;-58
2023/05/15 01:40:27;;;;;;;;;;;20.50;40.00;;;;;;5073337;28;19932;-58
2023/05/15 01:42:54;;;;;;;;;;;20.50;40.00;;;;;;5081389;28;19920;-58
2023/05/15 01:45:23;;;;;;;;;;;20.50;40.00;;;;;;5073164;28;19924;-58
2023/05/15 01:47:50;;;;;;;;;;;20.50;40.00;;;;;;5075014;28;19970;-58
2023/05/15 01:50:17;;;;;;;;;;;20.50;39.90;;;;;;5069876;28;20002;-58
2023/05/15 01:52:45;;;;;;;;;;;20.50;40.00;;;;;;5084847;28;19920;-58
2023/05/15 01:55:12;;;;;;;;;;;20.50;40.00;;;;;;5088979;28;19920;-58
2023/05/15 01:57:38;;;;;;;;;;;20.50;39.90;;;;;;5084974;28;19921;-58
2023/05/15 02:00:06;;;;;;;;;;;20.50;39.90;;;;;;5076438;28;19920;-58
2023/05/15 02:02:35;;;;;;;;;;;20.50;40.00;;;;;;5070586;28;20003;-58
2023/05/15 02:05:02;;;;;;;;;;;20.50;40.00;;;;;;5073419;28;19966;-59
2023/05/15 02:07:29;;;;;;;;;;;20.50;40.00;;;;;;5071435;28;20318;-58
2023/05/15 02:09:57;;;;;;;;;;;20.50;39.90;;;;;;5073897;28;19997;-58
2023/05/15 02:12:23;;;;;;;;;;;20.50;40.00;;;;;;5072259;28;19921;-58
2023/05/15 02:14:50;;;;;;;;;;;20.50;40.00;;;;;;5066708;28;19974;-58
2023/05/15 02:17:17;;;;;;;;;;;20.50;40.00;;;;;;5073133;28;19931;-58
2023/05/15 02:19:45;;;;;;;;;;;20.50;40.10;;;;;;5068481;28;19950;-58
2023/05/15 02:22:11;;;;;;;;;;;20.50;40.10;;;;;;5080009;28;19920;-58
2023/05/15 02:24:38;;;;;;;;;;;20.50;40.10;;;;;;5087668;28;19973;-58
2023/05/15 02:27:08;;;;;;;;;;;20.50;40.10;;;;;;5085790;28;19924;-58
2023/05/15 02:29:37;;;;;;;;;;;20.50;40.20;;;;;;5074089;28;19985;-58
2023/05/15 02:32:05;;;;;;;;;;;20.50;40.20;;;;;;5091150;28;19920;-58
2023/05/15 02:34:33;;;;;;;;;;;20.50;40.30;;;;;;5070767;28;19946;-58
2023/05/15 02:37:01;;;;;;;;;;;20.50;40.30;;;;;;5055322;28;19928;-58
2023/05/15 02:39:29;;;;;;;;;;;20.50;40.30;;;;;;5086945;28;19933;-58
2023/05/15 02:41:55;;;;;;;;;;;20.50;40.30;;;;;;5102293;28;19924;-58
2023/05/15 02:44:23;;;;;;;;;;;20.50;40.30;;;;;;5094995;28;19966;-58
2023/05/15 02:46:50;;;;;;;;;;;20.50;40.40;;;;;;5087190;28;19942;-58
2023/05/15 02:49:17;;;;;;;;;;;20.50;40.40;;;;;;5076366;28;20433;-58
2023/05/15 02:51:44;;;;;;;;;;;20.50;40.30;;;;;;5088306;28;19928;-58
2023/05/15 02:54:12;;;;;;;;;;;20.50;40.30;;;;;;5086530;28;19920;-58
2023/05/15 02:56:39;;;;;;;;;;;20.50;40.30;;;;;;5055366;28;19927;-58
2023/05/15 02:59:06;;;;;;;;;;;20.50;40.40;;;;;;5071803;28;19990;-58
2023/05/15 03:01:32;;;;;;;;;;;20.50;40.50;;;;;;5081613;28;19974;-58
2023/05/15 03:03:59;;;;;;;;;;;20.50;40.60;;;;;;5083221;28;19928;-58
2023/05/15 03:06:30;;;;;;;;;;;20.50;40.60;;;;;;5064972;28;19925;-57
2023/05/15 03:08:57;;;;;;;;;;;20.50;40.60;;;;;;5084185;28;19920;-58
2023/05/15 03:11:25;;;;;;;;;;;20.50;40.60;;;;;;5100204;28;19962;-58
2023/05/15 03:13:52;;;;;;;;;;;20.50;40.50;;;;;;5075713;28;19921;-58
2023/05/15 03:16:18;;;;;;;;;;;20.50;40.50;;;;;;5075099;28;19981;-58
2023/05/15 03:18:45;;;;;;;;;;;20.40;40.50;;;;;;5072854;28;19920;-58
2023/05/15 03:21:13;;;;;;;;;;;20.50;40.50;;;;;;5075848;28;19920;-58
2023/05/15 03:23:39;;;;;;;;;;;20.50;40.50;;;;;;5091083;28;19967;-58
2023/05/15 03:26:06;;;;;;;;;;;20.50;40.50;;;;;;5091408;28;19997;-58
2023/05/15 03:28:34;;;;;;;;;;;20.50;40.50;;;;;;5090886;28;19928;-58
2023/05/15 03:31:02;;;;;;;;;;;20.50;40.50;;;;;;5061752;28;19921;-58
2023/05/15 03:33:28;;;;;;;;;;;20.40;40.50;;;;;;5083082;28;19919;-58
2023/05/15 03:35:55;;;;;;;;;;;20.40;40.50;;;;;;5075920;28;19970;-58
2023/05/15 03:38:23;;;;;;;;;;;20.40;40.50;;;;;;5076622;28;20072;-57
2023/05/15 03:40:50;;;;;;;;;;;20.40;41.00;;;;;;5075084;28;19928;-58
2023/05/15 03:43:17;;;;;;;;;;;20.40;40.40;;;;;;5076826;28;19927;-58
2023/05/15 03:45:45;;;;;;;;;;;20.40;40.40;;;;;;5075588;28;19924;-58
2023/05/15 03:48:14;;;;;;;;;;;20.40;40.40;;;;;;5092856;28;19920;-58
2023/05/15 03:50:43;;;;;;;;;;;20.40;40.50;;;;;;5085963;28;19944;-58
2023/05/15 03:53:10;;;;;;;;;;;20.40;40.50;;;;;;5083290;28;20269;-58
2023/05/15 03:55:37;;;;;;;;;;;20.40;40.40;;;;;;5093391;28;19934;-58
2023/05/15 03:58:03;;;;;;;;;;;20.40;40.50;;;;;;5076888;28;19965;-58
2023/05/15 04:00:30;;;;;;;;;;;20.40;40.60;;;;;;5067379;28;19967;-58
2023/05/15 04:02:58;;;;;;;;;;;20.40;40.50;;;;;;5083286;28;19979;-57
2023/05/15 04:05:25;;;;;;;;;;;20.40;40.50;;;;;;5059351;28;19920;-58
2023/05/15 04:07:52;;;;;;;;;;;20.40;40.60;;;;;;5090374;28;19994;-57
2023/05/15 04:10:18;;;;;;;;;;;20.40;40.60;;;;;;5083548;28;20212;-59
2023/05/15 04:12:46;;;;;;;;;;;20.40;40.60;;;;;;5093483;28;19923;-57
2023/05/15 04:15:16;;;;;;;;;;;20.40;40.70;;;;;;5092841;28;19965;-58
2023/05/15 04:17:43;;;;;;;;;;;20.40;40.60;;;;;;5091750;28;20420;-58
2023/05/15 04:20:12;;;;;;;;;;;20.40;40.60;;;;;;5091429;28;19973;-58
2023/05/15 04:22:38;;;;;;;;;;;20.40;40.60;;;;;;5091869;28;19938;-58
2023/05/15 04:25:06;;;;;;;;;;;20.40;40.60;;;;;;5074342;28;19920;-58
2023/05/15 04:27:33;;;;;;;;;;;20.40;40.60;;;;;;5080397;28;19951;-58
2023/05/15 04:30:00;;;;;;;;;;;20.40;40.60;;;;;;5081429;28;19920;-58
2023/05/15 04:32:27;;;;;;;;;;;20.40;40.70;;;;;;5085884;28;19924;-58
2023/05/15 04:34:54;;;;;;;;;;;20.40;40.80;;;;;;5092986;28;20014;-58
2023/05/15 04:37:22;;;;;;;;;;;20.40;40.90;;;;;;5091214;28;19920;-58
2023/05/15 04:39:49;;;;;;;;;;;20.40;40.90;;;;;;5069527;28;19924;-59
2023/05/15 04:42:16;;;;;;;;;;;20.40;40.90;;;;;;5086499;28;19990;-58
2023/05/15 04:44:43;;;;;;;;;;;20.40;40.90;;;;;;5072492;28;20317;-58
2023/05/15 04:47:13;;;;;;;;;;;20.40;40.80;;;;;;5071805;28;19920;-58
2023/05/15 04:49:40;;;;;;;;;;;20.40;40.80;;;;;;5057634;28;19920;-58
2023/05/15 04:52:06;;;;;;;;;;;20.40;40.70;;;;;;5075478;28;19920;-58
2023/05/15 04:54:35;;;;;;;;;;;20.40;40.70;;;;;;5058016;28;19921;-57
2023/05/15 04:57:02;;;;;;;;;;;20.40;40.70;;;;;;5087711;28;19931;-58
2023/05/15 04:59:28;;;;;;;;;;;20.40;40.80;;;;;;5072613;28;19920;-58
2023/05/15 05:01:55;;;;;;;;;;;20.40;40.80;;;;;;5070161;28;19981;-58
2023/05/15 05:04:25;;;;;;;;;;;20.40;40.70;;;;;;5086923;28;19920;-58
2023/05/15 05:06:53;;;;;;;;;;;20.40;40.70;;;;;;5092314;28;20312;-58
2023/05/15 05:09:20;;;;;;;;;;;20.40;40.70;;;;;;5073672;28;19924;-58
2023/05/15 05:11:48;;;;;;;;;;;20.40;40.70;;;;;;5075210;28;19920;-58
2023/05/15 05:14:14;;;;;;;;;;;20.40;40.70;;;;;;5094095;28;19920;-58
2023/05/15 05:16:41;;;;;;;;;;;20.40;40.70;;;;;;5095578;28;19920;-58
2023/05/15 05:19:08;;;;;;;;;;;20.40;40.70;;;;;;5077380;28;19920;-58
2023/05/15 05:21:35;;;;;;;;;;;20.40;40.80;;;;;;5076996;28;19924;-58
2023/05/15 05:24:02;;;;;;;;;;;20.40;40.90;;;;;;5107819;28;20350;-58
2023/05/15 05:26:28;;;;;;;;;;;20.40;41.00;;;;;;5097212;28;19920;-58
2023/05/15 05:28:56;;;;;;;;;;;20.40;41.00;;;;;;5087619;28;19920;-58
2023/05/15 05:31:23;;;;;;;;;;;20.40;41.10;;;;;;5072453;28;20578;-58
2023/05/15 05:33:50;;;;;;;;;;;20.40;41.20;;;;;;5075188;28;20333;-56
2023/05/15 05:36:17;;;;;;;;;;;20.40;41.20;;;;;;5063511;28;19921;-59
2023/05/15 05:38:43;;;;;;;;;;;20.40;41.10;;;;;;5076416;28;19924;-59
2023/05/15 05:41:12;;;;;;;;;;;20.40;41.10;;;;;;5090218;28;19930;-56
2023/05/15 05:43:38;;;;;;;;;;;20.40;41.00;;;;;;5088827;28;19927;-57
2023/05/15 05:46:07;;;;;;;;;;;20.40;41.00;;;;;;5061779;28;19920;-57
2023/05/15 05:48:36;;;;;;;;;;;20.40;41.00;;;;;;5073750;28;19920;-57
2023/05/15 05:51:02;;;;;;;;;;;20.40;41.00;;;;;;5096944;28;19920;-57
2023/05/15 05:53:30;;;;;;;;;;;20.40;41.00;;;;;;5072202;28;19920;-57
2023/05/15 05:55:56;;;;;;;;;;;20.40;41.00;;;;;;5091122;28;20006;-57
2023/05/15 05:58:23;;;;;;;;;;;20.40;41.00;;;;;;5093511;28;19964;-57
2023/05/15 06:00:50;;;;;;;;;;;20.40;41.00;;;;;;5092337;28;19946;-57
2023/05/15 06:03:18;;;;;;;;;;;20.40;41.00;;;;;;5090980;28;19965;-57
2023/05/15 06:05:45;;;;;;;;;;;20.40;41.00;;;;;;5077203;28;19924;-57
2023/05/15 06:08:11;;;;;;;;;;;20.40;41.00;;;;;;5073145;28;19970;-57
2023/05/15 06:10:41;;;;;;;;;;;20.40;41.00;;;;;;5074004;28;19920;-57
2023/05/15 06:13:08;;;;;;;;;;;20.40;40.90;;;;;;5081537;28;19927;-57
2023/05/15 06:15:35;;;;;;;;;;;20.40;40.90;;;;;;5087474;28;19955;-58
2023/05/15 06:18:02;;;;;;;;;;;20.40;40.90;;;;;;5068459;28;19932;-58
2023/05/15 06:20:30;;;;;;;;;;;20.40;40.90;;;;;;5088197;28;19924;-58
2023/05/15 06:23:00;;;;;;;;;;;20.40;40.90;;;;;;5071304;28;20022;-58
2023/05/15 06:25:49;;;;;;;;;;;20.40;41.00;;;;;;5086215;28;19924;-58
2023/05/15 06:28:15;;;;;;;;;;;20.40;40.90;;;;;;5067519;28;19920;-59
2023/05/15 06:30:42;;;;;;;;;;;20.40;40.90;;;;;;5070033;28;19981;-58
2023/05/15 06:33:09;;;;;;;;;;;20.50;41.00;;;;;;5091335;28;19973;-58
2023/05/15 06:35:37;;;;;;;;;;;20.50;41.00;;;;;;5088878;28;19920;-58
2023/05/15 06:38:04;;;;;;;;;;;20.50;41.00;;;;;;5071967;28;19924;-57
2023/05/15 06:40:31;;;;;;;;;;;20.50;41.00;;;;;;5059486;28;19931;-57
2023/05/15 06:42:57;;;;;;;;;;;20.50;41.00;;;;;;5076734;28;19966;-57
2023/05/15 06:45:25;;;;;;;;;;;20.50;41.00;;;;;;5075465;28;19928;-58
2023/05/15 06:47:52;;;;;;;;;;;20.50;41.00;;;;;;5075274;28;19920;-58
2023/05/15 06:50:19;;;;;;;;;;;20.50;41.00;;;;;;5080765;28;19920;-58
2023/05/15 06:52:47;;;;;;;;;;;20.50;41.00;;;;;;5073304;28;20022;-58
2023/05/15 06:55:14;;;;;;;;;;;20.50;41.10;;;;;;5094272;28;19973;-58
2023/05/15 06:57:41;;;;;;;;;;;20.50;41.00;;;;;;5098127;28;19927;-58
2023/05/15 07:00:08;;;;;;;;;;;20.50;41.10;;;;;;5080468;28;19983;-58
2023/05/15 07:02:37;;;;;;;;;;;20.50;41.10;;;;;;5076519;28;20003;-58
2023/05/15 07:05:04;;;;;;;;;;;20.50;41.10;;;;;;5093855;28;20308;-58
2023/05/15 07:07:31;;;;;;;;;;;20.60;41.20;;;;;;5081415;28;19985;-59
2023/05/15 07:09:59;;;;;;;;;;;20.60;41.20;;;;;;5079583;28;19965;-59
2023/05/15 07:12:26;;;;;;;;;;;20.60;41.20;;;;;;5081032;28;19920;-58
2023/05/15 07:14:53;;;;;;;;;;;20.60;41.20;;;;;;5097181;28;19939;-58
2023/05/15 07:17:19;;;;;;;;;;;20.60;41.20;;;;;;5077176;28;19919;-59
2023/05/15 07:19:46;;;;;;;;;;;20.60;41.20;;;;;;5090676;28;19997;-58
2023/05/15 07:22:13;;;;;;;;;;;20.60;41.20;;;;;;5066516;28;20377;-59
2023/05/15 07:24:42;;;;;;;;;;;20.60;41.20;;;;;;5080532;28;19920;-59
2023/05/15 07:27:10;;;;;;;;;;;20.60;41.20;;;;;;5089761;28;20330;-59
2023/05/15 07:29:37;;;;;;;;;;;20.60;41.20;;;;;;5072805;28;19920;-58
2023/05/15 07:32:04;;;;;;;;;;;20.70;41.30;;;;;;5076507;28;19992;-58
2023/05/15 07:34:31;;;;;;;;;;;20.70;41.30;;;;;;5076975;28;19970;-58
2023/05/15 07:36:58;;;;;;;;;;;20.70;41.30;;;;;;5072250;28;19954;-57
2023/05/15 07:39:25;;;;;;;;;;;20.70;41.30;;;;;;5087861;28;19926;-58
2023/05/15 07:41:51;;;;;;;;;;;20.70;41.30;;;;;;5091946;28;19959;-57
2023/05/15 07:44:19;;;;;;;;;;;20.70;41.20;;;;;;5062386;28;19967;-58
2023/05/15 07:46:46;;;;;;;;;;;20.70;41.30;;;;;;5084625;28;19924;-57
2023/05/15 07:49:16;;;;;;;;;;;20.70;41.30;;;;;;5074259;28;19970;-56
2023/05/15 07:51:45;;;;;;;;;;;20.70;41.30;;;;;;5090417;28;20251;-58
2023/05/15 07:54:12;;;;;;;;;;;20.70;41.30;;;;;;5084077;28;19924;-57
2023/05/15 07:56:39;;;;;;;;;;;20.70;41.40;;;;;;5091306;28;19924;-57
2023/05/15 07:59:06;;;;;;;;;;;20.70;41.40;;;;;;5093955;28;19920;-58
2023/05/15 08:01:34;;;;;;;;;;;20.70;41.30;;;;;;5091382;28;19932;-57
2023/05/15 08:04:01;;;;;;;;;;;20.70;41.30;;;;;;5076237;28;19959;-58
2023/05/15 08:06:28;;;;;;;;;;;20.70;41.30;;;;;;5073070;28;19927;-57
2023/05/15 08:08:55;;;;;;;;;;;20.70;41.40;;;;;;5074834;28;19920;-58
2023/05/15 08:11:21;;;;;;;;;;;20.70;41.40;;;;;;5090091;28;19973;-59
2023/05/15 08:13:48;;;;;;;;;;;20.80;41.50;;;;;;5093348;28;19927;-58
2023/05/15 08:16:15;;;;;;;;;;;20.80;41.50;;;;;;5090385;28;19959;-58
2023/05/15 08:18:44;;;;;;;;;;;20.80;41.60;;;;;;5090511;28;19931;-59
2023/05/15 08:21:11;;;;;;;;;;;20.80;41.60;;;;;;5088277;28;19927;-59
2023/05/15 08:23:37;;;;;;;;;;;20.80;41.60;;;;;;5082428;28;19920;-59
2023/05/15 08:26:04;;;;;;;;;;;20.80;41.60;;;;;;5082937;28;19920;-59
2023/05/15 08:28:34;;;;;;;;;;;20.80;41.60;;;;;;5075243;28;19920;-58
2023/05/15 08:31:01;;;;;;;;;;;20.80;41.60;;;;;;5071516;28;19920;-58
2023/05/15 08:33:27;;;;;;;;;;;20.80;41.60;;;;;;5081792;28;20018;-59
2023/05/15 08:35:56;;;;;;;;;;;20.80;41.60;;;;;;5090942;28;20244;-58
2023/05/15 08:38:24;;;;;;;;;;;20.80;41.60;;;;;;5077790;28;19924;-59
2023/05/15 08:40:51;;;;;;;;;;;20.80;41.60;;;;;;5094593;28;19927;-58
2023/05/15 08:43:18;;;;;;;;;;;20.80;41.50;;;;;;5095461;28;19976;-58
2023/05/15 08:45:44;;;;;;;;;;;20.80;41.50;;;;;;5077717;28;19927;-58
2023/05/15 08:48:13;;;;;;;;;;;20.80;41.50;;;;;;5094880;28;19924;-57
2023/05/15 08:50:40;;;;;;;;;;;20.90;41.60;;;;;;5077365;28;19920;-58
2023/05/15 08:53:08;;;;;;;;;;;20.90;41.60;;;;;;5094681;28;20406;-58
2023/05/15 08:55:35;;;;;;;;;;;20.90;41.60;;;;;;5077432;28;19927;-58
2023/05/15 08:58:02;;;;;;;;;;;20.90;41.60;;;;;;5077371;28;19920;-58
2023/05/15 09:00:29;;;;;;;;;;;20.90;41.60;;;;;;5077991;28;20292;-59
2023/05/15 09:02:55;;;;;;;;;;;20.90;41.60;;;;;;5093191;28;19946;-59
2023/05/15 09:05:22;;;;;;;;;;;20.90;41.60;;;;;;5078214;28;19967;-58
2023/05/15 09:07:49;;;;;;;;;;;20.90;41.60;;;;;;5076943;28;19920;-58
2023/05/15 09:10:20;;;;;;;;;;;20.90;41.50;;;;;;5089360;28;19932;-58
2023/05/15 09:12:47;;;;;;;;;;;20.90;41.60;;;;;;5089502;28;19970;-58
2023/05/15 09:15:16;;;;;;;;;;;20.90;41.50;;;;;;5095296;28;19920;-58
2023/05/15 09:17:42;;;;;;;;;;;20.90;41.50;;;;;;5094057;28;19919;-58
2023/05/15 09:20:27;;;;;;;;;;;20.90;41.40;;;;;;5071771;28;19920;-58
2023/05/15 09:22:54;;;;;;;;;;;20.90;41.30;;;;;;5086984;28;19930;-58
2023/05/15 09:25:36;;;;;;;;;;;20.90;41.80;;;;;;5092925;28;19932;-60
2023/05/15 09:28:03;;;;;;;;;;;20.90;41.00;;;;;;5071977;28;20031;-61
2023/05/15 09:30:30;;;;;;;;;;;20.90;40.90;;;;;;5089774;28;20032;-61
2023/05/15 09:32:58;;;;;;;;;;;20.90;40.90;;;;;;5090227;28;19923;-61
2023/05/15 09:35:29;;;;;;;;;;;20.90;40.90;;;;;;5071137;28;19992;-61
2023/05/15 09:37:59;;;;;;;;;;;20.90;40.90;;;;;;5072000;28;19920;-61
2023/05/15 09:40:28;;;;;;;;;;;21.00;41.00;;;;;;5088815;28;21009;-61
2023/05/15 09:42:56;;;;;;;;;;;21.00;41.10;;;;;;5082621;28;19920;-61
2023/05/15 09:45:24;;;;;;;;;;;21.00;41.10;;;;;;5068525;28;19924;-62
2023/05/15 09:47:51;;;;;;;;;;;21.00;41.10;;;;;;5086618;28;19920;-62
2023/05/15 09:50:20;;;;;;;;;;;21.00;41.10;;;;;;5070086;28;19963;-61
2023/05/15 09:52:47;;;;;;;;;;;21.00;41.20;;;;;;5085375;28;19936;-62
2023/05/15 09:55:16;;;;;;;;;;;21.00;41.20;;;;;;5069576;28;19931;-62
2023/05/15 09:57:42;;;;;;;;;;;21.00;41.20;;;;;;5072426;28;19920;-62
2023/05/15 10:00:11;;;;;;;;;;;21.10;41.30;;;;;;5084631;28;19932;-62
2023/05/15 10:02:40;;;;;;;;;;;21.00;41.20;;;;;;5073948;28;19927;-62
2023/05/15 10:05:07;;;;;;;;;;;21.10;41.30;;;;;;5079526;28;19926;-62
2023/05/15 10:07:34;;;;;;;;;;;21.10;41.30;;;;;;5073023;28;20037;-61
2023/05/15 10:10:02;;;;;;;;;;;21.10;41.40;;;;;;5071722;28;20005;-62
2023/05/15 10:12:31;;;;;;;;;;;21.10;41.40;;;;;;5071635;28;19928;-61
2023/05/15 10:14:58;;;;;;;;;;;21.10;41.40;;;;;;5075999;28;19928;-61
2023/05/15 10:17:26;;;;;;;;;;;21.10;41.40;;;;;;5071916;28;19928;-61
2023/05/15 10:19:53;;;;;;;;;;;21.10;41.40;;;;;;5069420;28;20492;-61
2023/05/15 10:22:22;;;;;;;;;;;21.20;41.50;;;;;;5089760;28;19985;-61
2023/05/15 10:24:48;;;;;;;;;;;21.20;41.60;;;;;;5080010;28;21728;-62
2023/05/15 10:27:17;;;;;;;;;;;21.20;41.60;;;;;;5080922;28;19989;-62
2023/05/15 10:29:44;;;;;;;;;;;21.20;41.50;;;;;;5071888;28;19930;-61
2023/05/15 10:32:12;;;;;;;;;;;21.10;42.00;;;;;;5085572;28;20197;-61
2023/05/15 10:34:40;;;;;;;;;;;21.20;41.50;;;;;;5074472;28;20007;-62
2023/05/15 10:37:09;;;;;;;;;;;21.20;41.60;;;;;;5089828;28;19936;-61
2023/05/15 10:39:37;;;;;;;;;;;21.20;41.60;;;;;;5071444;28;19920;-60
2023/05/15 10:42:04;;;;;;;;;;;21.20;41.60;;;;;;5073269;28;20018;-61
2023/05/15 10:44:31;;;;;;;;;;;21.10;41.50;;;;;;5062224;28;19982;-61
2023/05/15 10:46:58;;;;;;;;;;;21.20;41.60;;;;;;5085831;28;20365;-61
2023/05/15 10:49:25;;;;;;;;;;;21.20;41.70;;;;;;5072647;28;19926;-62
2023/05/15 10:51:56;;;;;;;;;;;21.20;41.70;;;;;;5076457;28;19925;-61
2023/05/15 10:54:23;;;;;;;;;;;21.20;41.70;;;;;;5092802;28;19959;-61
2023/05/15 10:56:49;;;;;;;;;;;21.20;41.70;;;;;;5092130;28;19923;-61
2023/05/15 10:59:16;;;;;;;;;;;21.20;41.80;;;;;;5096835;28;19920;-61
2023/05/15 11:01:54;;;;;;;;;;;21.20;41.80;;;;;;5083746;28;19919;-61
2023/05/15 11:04:21;;;;;;;;;;;21.20;41.80;;;;;;5063441;28;20389;-62
2023/05/15 11:06:48;;;;;;;;;;;21.20;41.80;;;;;;5069798;28;19974;-61
2023/05/15 11:09:34;;;;;;;;;;;21.20;41.80;;;;;;5086184;28;19931;-61
2023/05/15 11:12:01;;;;;;;;;;;21.20;41.80;;;;;;5086434;28;19932;-61
2023/05/15 11:14:27;;;;;;;;;;;21.20;41.80;;;;;;5087980;28;19977;-62
2023/05/15 11:17:02;;;;;;;;;;;21.20;41.80;;;;;;5070890;28;19981;-61
2023/05/15 11:19:33;;;;;;;;;;;21.20;41.80;;;;;;5104155;28;19928;-60
2023/05/15 11:22:01;;;;;;;;;;;21.20;41.80;;;;;;5072311;28;20151;-62
2023/05/15 11:24:28;;;;;;;;;;;21.20;41.80;;;;;;5075063;28;19970;-61
2023/05/15 11:27:04;;;;;;;;;;;21.20;41.80;;;;;;5076132;28;19924;-61
2023/05/15 11:29:31;;;;;;;;;;;21.20;41.80;;;;;;5100171;28;19928;-62
2023/05/15 11:31:58;;;;;;;;;;;21.20;41.80;;;;;;5079927;28;19955;-63
2023/05/15 11:34:31;;;;;;;;;;;21.20;41.80;;;;;;5092241;28;20425;-61
2023/05/15 11:36:58;;;;;;;;;;;21.20;41.80;;;;;;5092082;28;20014;-61
2023/05/15 11:39:25;;;;;;;;;;;21.20;41.80;;;;;;5091222;28;20023;-61
2023/05/15 11:41:52;;;;;;;;;;;21.20;41.80;;;;;;5092068;28;19967;-61
2023/05/15 11:44:22;;;;;;;;;;;21.20;41.80;;;;;;5099976;28;19920;-61
2023/05/15 11:46:48;;;;;;;;;;;21.20;41.80;;;;;;5076579;28;20022;-62
2023/05/15 11:49:15;;;;;;;;;;;21.20;41.80;;;;;;5077720;28;19920;-62
2023/05/15 11:51:42;;;;;;;;;;;21.20;41.80;;;;;;5078247;28;19920;-60
2023/05/15 11:54:10;;;;;;;;;;;21.20;41.80;;;;;;5078269;28;19927;-61
2023/05/15 11:56:36;;;;;;;;;;;21.20;41.90;;;;;;5091483;28;19951;-60
2023/05/15 11:59:03;;;;;;;;;;;21.20;41.90;;;;;;5080644;28;19920;-61
2023/05/15 12:01:42;;;;;;;;;;;21.20;41.90;;;;;;5092109;28;19950;-61
2023/05/15 12:04:13;;;;;;;;;;;21.20;42.00;;;;;;5094524;28;20053;-62
2023/05/15 12:06:40;;;;;;;;;;;21.30;42.10;;;;;;5109695;28;20010;-61
2023/05/15 12:09:10;;;;;;;;;;;21.20;42.00;;;;;;5091435;28;19924;-62
2023/05/15 12:11:37;;;;;;;;;;;21.30;42.20;;;;;;5091345;28;19985;-61
2023/05/15 12:14:04;;;;;;;;;;;21.20;42.10;;;;;;5082476;28;19924;-61
2023/05/15 12:16:30;;;;;;;;;;;21.30;42.20;;;;;;5073203;28;19969;-61
2023/05/15 12:18:58;;;;;;;;;;;21.30;42.20;;;;;;5102510;28;19973;-61
2023/05/15 12:21:26;;;;;;;;;;;21.30;42.20;;;;;;5110519;28;19924;-62
2023/05/15 12:23:52;;;;;;;;;;;21.30;42.20;;;;;;5089792;28;19981;-61
2023/05/15 12:26:20;;;;;;;;;;;21.30;42.20;;;;;;5073445;28;19920;-62
2023/05/15 12:28:47;;;;;;;;;;;21.30;42.20;;;;;;5100486;28;19919;-62
2023/05/15 12:31:14;;;;;;;;;;;21.30;42.20;;;;;;5087770;28;19920;-61
2023/05/15 12:33:43;;;;;;;;;;;21.40;42.40;;;;;;5080270;28;19949;-62
2023/05/15 12:36:11;;;;;;;;;;;21.40;42.30;;;;;;5067922;28;19960;-62
2023/05/15 12:38:39;;;;;;;;;;;21.30;42.30;;;;;;5085118;28;19984;-62
2023/05/15 12:41:06;;;;;;;;;;;21.40;42.40;;;;;;5083312;28;19924;-61
2023/05/15 12:43:32;;;;;;;;;;;21.40;42.40;;;;;;5073292;28;20072;-58
2023/05/15 12:45:59;;;;;;;;;;;21.40;42.40;;;;;;5095926;28;19919;-61
2023/05/15 12:48:29;;;;;;;;;;;21.40;42.40;;;;;;5081844;28;19955;-61
2023/05/15 12:50:56;;;;;;;;;;;21.40;42.40;;;;;;5083214;28;19930;-62
2023/05/15 12:53:24;;;;;;;;;;;21.40;42.40;;;;;;5087421;28;19973;-61
2023/05/15 12:55:50;;;;;;;;;;;21.40;42.40;;;;;;5104814;28;19946;-60
2023/05/15 12:58:18;;;;;;;;;;;21.40;42.40;;;;;;5082798;28;19935;-62
2023/05/15 13:00:44;;;;;;;;;;;21.40;42.40;;;;;;5092720;28;19970;-62
2023/05/15 13:03:11;;;;;;;;;;;21.40;42.40;;;;;;5092034;28;20015;-62
2023/05/15 13:05:39;;;;;;;;;;;21.40;42.50;;;;;;5095876;28;20405;-61
2023/05/15 13:08:20;;;;;;;;;;;21.40;42.50;;;;;;5108305;28;19924;-62
2023/05/15 13:10:51;;;;;;;;;;;21.40;42.50;;;;;;5080320;28;19919;-61
2023/05/15 13:13:18;;;;;;;;;;;21.40;42.60;;;;;;5094275;28;19985;-61
2023/05/15 13:15:44;;;;;;;;;;;21.40;42.60;;;;;;5055767;28;19932;-63
2023/05/15 13:18:12;;;;;;;;;;;21.40;42.60;;;;;;5072837;28;19920;-58
2023/05/15 13:20:42;;;;;;;;;;;21.40;42.60;;;;;;5093665;28;19927;-58
2023/05/15 13:23:09;;;;;;;;;;;21.40;42.60;;;;;;5069371;28;19970;-58
2023/05/15 13:25:36;;;;;;;;;;;21.40;42.60;;;;;;5073000;28;19937;-58
2023/05/15 13:28:05;;;;;;;;;;;21.40;42.60;;;;;;5087432;28;19967;-59
2023/05/15 13:30:32;;;;;;;;;;;21.40;42.60;;;;;;5075040;28;19939;-59
2023/05/15 13:32:59;;;;;;;;;;;21.40;42.60;;;;;;5089061;28;19920;-59
2023/05/15 13:35:26;;;;;;;;;;;21.40;42.60;;;;;;5088572;28;19928;-60
2023/05/15 13:37:53;;;;;;;;;;;21.40;42.70;;;;;;5083924;28;19924;-60
2023/05/15 13:40:20;;;;;;;;;;;21.40;42.70;;;;;;5086934;28;20312;-58
2023/05/15 13:42:46;;;;;;;;;;;21.40;42.70;;;;;;5069971;28;20374;-58
2023/05/15 13:45:15;;;;;;;;;;;21.40;42.70;;;;;;5088244;28;19928;-59
2023/05/15 13:47:42;;;;;;;;;;;21.40;42.80;;;;;;5072163;28;19985;-58
2023/05/15 13:50:09;;;;;;;;;;;21.40;42.80;;;;;;5088462;28;19927;-58
2023/05/15 13:52:36;;;;;;;;;;;21.40;42.80;;;;;;5091072;28;19942;-58
2023/05/15 13:55:03;;;;;;;;;;;21.40;42.80;;;;;;5074592;28;20389;-58
2023/05/15 13:57:30;;;;;;;;;;;21.40;42.90;;;;;;5088798;28;19927;-57
2023/05/15 13:59:57;;;;;;;;;;;21.40;42.90;;;;;;5092977;28;19928;-58
2023/05/15 14:02:25;;;;;;;;;;;21.40;42.90;;;;;;5081512;28;19927;-60
2023/05/15 14:04:52;;;;;;;;;;;21.40;42.90;;;;;;5078167;28;19926;-59
2023/05/15 14:07:19;;;;;;;;;;;21.40;43.00;;;;;;5088137;28;20267;-59
2023/05/15 14:09:46;;;;;;;;;;;21.40;43.10;;;;;;5070586;28;19920;-59
2023/05/15 14:12:13;;;;;;;;;;;21.50;43.20;;;;;;5090298;28;19981;-59
2023/05/15 14:14:39;;;;;;;;;;;21.50;43.20;;;;;;5075921;28;20287;-59
2023/05/15 14:17:06;;;;;;;;;;;21.50;43.30;;;;;;5084489;28;19924;-59
2023/05/15 14:19:34;;;;;;;;;;;21.40;43.30;;;;;;5090132;28;19927;-59